Causey, NM

3:52 AM MST on November 22, 2014 (GMT -0700)
WT_Meso 2 MI. SW OF DORA, NM | Change Station
CLOSE
Current Station
Personal Weather Station
Location: Dora, NM
Elevation: 4339 ft
Nearby Weather Stations

Elev 4339 ft 33.92 °N, 103.36 °W | Updated 57 minutes ago

Mostly Cloudy
Mostly Cloudy
48 °F
Feels Like 44 °F
N
9
Wind Variable Wind from SSW
Gusts 11.0 mph

Today
High -- | Low -- °F
--% Chance of Precip.
Yesterday
High -- | Low -- °F
Precip. -- in
6:31 AM 4:45 PM
Waning Crescent, 0% visible
Pressure 29.92 in
Visibility 10.0 miles
Clouds Clear
Windchill 44 °F
Dew Point 46 °F
Humidity 92%
Rainfall -999.00 in
Snow Depth Not available.
UV 0 out of 12
Pollen 5.90 out of 12
Air Quality Not available.
Flu Activity Not available.
METAR KCVS 220958Z AUTO 00000KT 10SM CLR 08/03 A3001 RMK AO2 SLP132 T00830034 $

More Conditions Fewer Conditions

Pressure 29.92 in
Visibility 10.0 miles
Clouds Clear
Windchill 44 °F
Dew Point 46 °F
Humidity 92%
Rainfall -999.00 in
Snow Depth Not available.
UV 0 out of 12
Pollen 5.90 out of 12
Air Quality Not available.
Flu Activity Not available.
METAR KCVS 220958Z AUTO 00000KT 10SM CLR 08/03 A3001 RMK AO2 SLP132 T00830034 $

More Conditions Fewer Conditions

10-Day Weather Forecast

Almanac

Astronomy

Nov. 22, 2014 Rise Set
Actual Time
Civil Twilight
Nautical Twilight
Astronomical Twilight
Moon
Length of Visible Light
Length of Day
Tomorrow will be .
, % of the Moon is Illuminated

Today's Extremes

State Highs State Lows

Community

WunderPhotos

Upload Photos

1,772,805 photos uploaded!

WunderBlogs® & News

Nearby

Air Quality

  Air Quality AQ Index Pollutant
Not available.

Snow Depth

Station Depth Elevation

Earthquake Activity

City Distance Mag. Time & Date
Minimum magnitude displayed is 2.5.

Coastal Water Temperatures

Place Temperature

Nearby Weather Stations